createdAt,value
2018-12-16T00:01:28.889Z,39.67
2018-12-16T00:03:56.852Z,40.07
2018-12-16T00:06:24.821Z,42.93
2018-12-16T00:08:52.820Z,45.10
2018-12-16T00:11:20.815Z,42.23
2018-12-16T00:13:48.775Z,39.17
2018-12-16T00:16:16.852Z,38.40
2018-12-16T00:18:44.829Z,43.10
2018-12-16T00:21:12.939Z,48.77
2018-12-16T00:23:41.018Z,40.93
2018-12-16T00:26:08.984Z,43.17
2018-12-16T00:28:36.951Z,38.27
2018-12-16T00:31:05.034Z,42.10
2018-12-16T00:33:33.062Z,38.33
2018-12-16T00:36:01.024Z,37.60
2018-12-16T00:38:29.088Z,40.37
2018-12-16T00:40:57.057Z,44.63
2018-12-16T00:43:25.025Z,41.07
2018-12-16T00:45:53.064Z,42.67
2018-12-16T00:48:21.092Z,43.63
2018-12-16T00:50:49.155Z,43.37
2018-12-16T00:53:17.388Z,46.60
2018-12-16T00:55:45.369Z,43.60
2018-12-16T00:58:13.345Z,41.77
2018-12-16T01:00:41.338Z,43.17
2018-12-16T01:03:09.392Z,48.23
2018-12-16T01:05:37.395Z,45.30
2018-12-16T01:08:05.428Z,39.97
2018-12-16T01:10:33.409Z,51.70
2018-12-16T01:13:01.376Z,45.97
2018-12-16T01:15:29.370Z,42.87
2018-12-16T01:17:57.384Z,44.43
2018-12-16T01:20:25.388Z,43.80
2018-12-16T01:22:53.424Z,40.80
2018-12-16T01:25:21.389Z,46.40
2018-12-16T01:27:49.454Z,46.13
2018-12-16T01:30:17.447Z,44.80
2018-12-16T01:32:50.409Z,46.57
2018-12-16T01:35:18.552Z,45.93
2018-12-16T01:37:46.568Z,45.87
2018-12-16T01:40:14.984Z,50.13
2018-12-16T01:42:47.981Z,46.67
2018-12-16T01:45:15.940Z,45.93
2018-12-16T01:47:43.896Z,45.50
2018-12-16T01:50:12.019Z,41.87
2018-12-16T01:52:39.976Z,40.77
2018-12-16T01:55:07.984Z,43.87
2018-12-16T01:57:35.981Z,49.43
2018-12-16T02:00:06.630Z,52.73
2018-12-16T02:02:34.603Z,47.77
2018-12-16T02:05:02.624Z,50.47
2018-12-16T02:07:30.585Z,46.80
2018-12-16T02:09:58.549Z,44.10
2018-12-16T02:12:26.561Z,49.20
2018-12-16T02:14:54.531Z,48.73
2018-12-16T02:17:22.572Z,51.17
2018-12-16T02:19:50.649Z,47.97
2018-12-16T02:22:18.608Z,48.53
2018-12-16T02:24:46.578Z,46.30
2018-12-16T02:27:14.572Z,42.40
2018-12-16T02:29:42.544Z,49.57
2018-12-16T02:32:10.502Z,48.47
2018-12-16T02:34:38.597Z,51.50
2018-12-16T02:37:06.557Z,46.67
2018-12-16T02:39:34.514Z,49.73
2018-12-16T02:42:02.517Z,47.93
2018-12-16T02:44:30.647Z,49.23
2018-12-16T02:46:58.663Z,51.93
2018-12-16T02:49:26.649Z,48.03
2018-12-16T02:51:59.572Z,48.43
2018-12-16T02:54:27.596Z,49.20
2018-12-16T02:56:55.569Z,52.03
2018-12-16T02:59:23.753Z,52.10
2018-12-16T03:01:51.707Z,50.87
2018-12-16T03:04:19.673Z,51.60
2018-12-16T03:06:47.708Z,52.57
2018-12-16T03:09:15.801Z,49.00
2018-12-16T03:11:43.786Z,51.80
2018-12-16T03:14:11.788Z,55.07
2018-12-16T03:16:39.855Z,48.57
2018-12-16T03:19:07.868Z,51.77
2018-12-16T03:21:36.144Z,56.17
2018-12-16T03:24:04.145Z,48.57
2018-12-16T03:26:35.818Z,47.63
2018-12-16T03:29:02.112Z,50.53
2018-12-16T03:31:30.189Z,50.97
2018-12-16T03:33:58.163Z,54.60
2018-12-16T03:36:26.117Z,54.10
2018-12-16T03:38:54.273Z,53.30
2018-12-16T03:41:22.231Z,55.87
2018-12-16T03:43:50.189Z,51.23
2018-12-16T03:46:18.192Z,51.87
2018-12-16T03:48:46.152Z,52.63
2018-12-16T03:51:14.130Z,55.53
2018-12-16T03:53:42.210Z,52.63
2018-12-16T03:56:10.277Z,50.20
2018-12-16T03:58:42.152Z,52.20
2018-12-16T04:01:10.216Z,51.63
2018-12-16T04:03:38.212Z,62.00
2018-12-16T04:06:06.201Z,54.60
2018-12-16T04:08:34.169Z,55.27
2018-12-16T04:11:02.138Z,50.27
2018-12-16T04:13:30.124Z,48.77
2018-12-16T04:15:58.095Z,52.40
2018-12-16T04:18:26.204Z,54.30
2018-12-16T04:20:54.206Z,52.73
2018-12-16T04:23:27.436Z,43.50
2018-12-16T04:25:52.143Z,55.23
2018-12-16T04:28:20.221Z,55.53
2018-12-16T04:30:48.205Z,58.53
2018-12-16T04:33:16.163Z,48.03
2018-12-16T04:35:44.150Z,55.43
2018-12-16T04:38:12.209Z,59.57
2018-12-16T04:40:40.170Z,57.80
2018-12-16T04:43:08.265Z,49.80
2018-12-16T04:45:36.355Z,54.13
2018-12-16T04:48:04.321Z,60.17
2018-12-16T04:50:32.323Z,59.57
2018-12-16T04:53:00.321Z,59.40
2018-12-16T04:55:28.294Z,51.07
2018-12-16T04:57:56.326Z,54.23
2018-12-16T05:00:24.319Z,57.53
2018-12-16T05:02:52.301Z,51.23
2018-12-16T05:05:20.340Z,52.10
2018-12-16T05:07:48.513Z,51.13
2018-12-16T05:10:22.529Z,53.20
2018-12-16T05:12:50.602Z,52.40
2018-12-16T05:15:18.573Z,57.87
2018-12-16T05:17:46.712Z,57.87
2018-12-16T05:20:14.738Z,59.03
2018-12-16T05:22:47.733Z,55.40
2018-12-16T05:25:15.727Z,57.10
2018-12-16T05:27:43.669Z,54.20
2018-12-16T05:30:11.787Z,55.57
2018-12-16T05:32:39.749Z,53.17
2018-12-16T05:35:08.446Z,58.30
2018-12-16T05:37:36.528Z,50.90
2018-12-16T05:40:05.378Z,55.73
2018-12-16T05:42:33.344Z,58.27
2018-12-16T05:45:01.348Z,56.60
2018-12-16T05:47:29.340Z,51.20
2018-12-16T05:49:57.546Z,54.17
2018-12-16T05:52:25.617Z,58.50
2018-12-16T05:54:53.583Z,57.97
2018-12-16T05:57:21.544Z,57.87
2018-12-16T05:59:49.621Z,49.37
2018-12-16T06:02:17.588Z,64.23
2018-12-16T06:04:45.556Z,51.03
2018-12-16T06:07:13.560Z,55.87
2018-12-16T06:09:41.529Z,57.97
2018-12-16T06:12:09.493Z,54.20
2018-12-16T06:14:37.576Z,51.70
2018-12-16T06:17:05.528Z,52.83
2018-12-16T06:19:33.568Z,57.43
2018-12-16T06:22:01.569Z,55.60
2018-12-16T06:24:29.516Z,54.83
2018-12-16T06:26:57.468Z,58.27
2018-12-16T06:29:25.465Z,56.57
2018-12-16T06:31:53.424Z,54.97
2018-12-16T06:34:21.395Z,57.67
2018-12-16T06:36:49.552Z,56.33
2018-12-16T06:39:17.524Z,57.27
2018-12-16T06:41:45.497Z,53.93
2018-12-16T06:44:13.573Z,53.23
2018-12-16T06:46:41.571Z,54.23
2018-12-16T06:49:09.548Z,55.33
2018-12-16T06:51:37.564Z,59.47
2018-12-16T06:54:05.536Z,51.40
2018-12-16T06:56:33.505Z,54.13
2018-12-16T06:59:01.487Z,58.70
2018-12-16T07:01:29.448Z,51.43
2018-12-16T07:03:57.404Z,53.83
2018-12-16T07:06:25.493Z,53.93
2018-12-16T07:08:53.456Z,50.63
2018-12-16T07:11:21.421Z,53.83
2018-12-16T07:13:49.396Z,51.03
2018-12-16T07:16:17.513Z,53.20
2018-12-16T07:18:45.515Z,52.30
2018-12-16T07:21:13.521Z,52.03
2018-12-16T07:23:41.575Z,58.47
2018-12-16T07:26:09.604Z,52.07
2018-12-16T07:28:37.625Z,49.33
2018-12-16T07:31:05.697Z,49.10
2018-12-16T07:33:33.753Z,49.27
2018-12-16T07:36:01.799Z,51.37
2018-12-16T07:38:29.846Z,55.27
2018-12-16T07:40:57.800Z,55.63
2018-12-16T07:43:25.848Z,50.67
2018-12-16T07:45:53.826Z,54.97
2018-12-16T07:48:21.921Z,53.80
2018-12-16T07:50:50.099Z,49.27
2018-12-16T07:53:18.190Z,54.20
2018-12-16T07:55:46.181Z,52.33
2018-12-16T07:58:14.296Z,55.93
2018-12-16T08:00:42.264Z,53.07
2018-12-16T08:03:10.229Z,52.03
2018-12-16T08:05:38.376Z,50.97
2018-12-16T08:08:06.368Z,55.00
2018-12-16T08:10:34.333Z,49.47
2018-12-16T08:13:02.320Z,49.07
2018-12-16T08:15:30.292Z,47.23
2018-12-16T08:17:58.253Z,49.20
2018-12-16T08:20:26.229Z,48.57
2018-12-16T08:22:54.280Z,47.03
2018-12-16T08:25:22.242Z,47.77
2018-12-16T08:27:50.204Z,44.57
2018-12-16T08:30:18.251Z,41.60
2018-12-16T08:32:46.264Z,38.03
2018-12-16T08:35:14.311Z,38.93
2018-12-16T08:37:42.278Z,39.13
2018-12-16T08:40:10.244Z,32.73
2018-12-16T08:42:38.224Z,34.70
2018-12-16T08:45:06.371Z,34.27
2018-12-16T08:47:34.405Z,30.20
2018-12-16T08:50:02.428Z,31.90
2018-12-16T08:52:30.392Z,26.20
2018-12-16T08:54:58.345Z,27.97
2018-12-16T08:57:26.340Z,31.40
2018-12-16T08:59:54.307Z,29.73
2018-12-16T09:02:22.384Z,32.97
2018-12-16T09:04:50.382Z,23.63
2018-12-16T09:07:18.335Z,28.60
2018-12-16T09:09:46.359Z,31.03
2018-12-16T09:12:14.453Z,31.17
2018-12-16T09:14:42.504Z,31.53
2018-12-16T09:17:10.465Z,28.37
2018-12-16T09:19:38.568Z,28.77
2018-12-16T09:22:06.542Z,28.33
2018-12-16T09:24:37.406Z,29.17
2018-12-16T09:27:04.663Z,31.90
2018-12-16T09:29:32.713Z,29.57
2018-12-16T09:32:00.680Z,28.67
2018-12-16T09:34:28.785Z,27.50
2018-12-16T09:36:56.816Z,28.83
2018-12-16T09:39:24.785Z,28.70
2018-12-16T09:41:52.836Z,27.93
2018-12-16T09:44:20.831Z,27.80
2018-12-16T09:46:48.791Z,24.80
2018-12-16T09:49:16.796Z,26.47
2018-12-16T09:51:44.857Z,26.00
2018-12-16T09:54:12.855Z,30.27
2018-12-16T09:56:40.993Z,28.03
2018-12-16T09:59:08.955Z,31.30
2018-12-16T10:01:36.938Z,26.03
2018-12-16T10:04:04.951Z,27.93
2018-12-16T10:06:32.967Z,29.60
2018-12-16T10:09:00.981Z,30.07
2018-12-16T10:11:29.081Z,28.23
2018-12-16T10:13:56.996Z,30.87
2018-12-16T10:16:24.968Z,28.97
2018-12-16T10:18:52.975Z,33.97
2018-12-16T10:21:20.951Z,32.93
2018-12-16T10:23:48.925Z,28.07
2018-12-16T10:26:16.987Z,32.33
2018-12-16T10:28:44.952Z,26.67
2018-12-16T10:31:12.976Z,31.87
2018-12-16T10:33:40.954Z,35.43
2018-12-16T10:36:09.018Z,29.17
2018-12-16T10:38:36.991Z,38.67
2018-12-16T10:41:05.165Z,33.23
2018-12-16T10:43:33.128Z,30.17
2018-12-16T10:46:01.192Z,31.63
2018-12-16T10:48:29.196Z,30.17
2018-12-16T10:50:57.166Z,29.00
2018-12-16T10:53:25.177Z,33.03
2018-12-16T10:55:53.252Z,31.23
2018-12-16T10:58:21.245Z,31.37
2018-12-16T11:00:55.030Z,33.70
2018-12-16T11:03:22.998Z,34.57
2018-12-16T11:05:51.028Z,31.73
2018-12-16T11:08:19.099Z,36.97
2018-12-16T11:10:47.108Z,31.00
2018-12-16T11:13:15.044Z,27.77
2018-12-16T11:15:43.180Z,29.37
2018-12-16T11:18:12.065Z,32.83
2018-12-16T11:20:40.141Z,33.73
2018-12-16T11:23:08.228Z,29.67
2018-12-16T11:25:36.581Z,36.70
2018-12-16T11:28:04.632Z,31.30
2018-12-16T11:30:32.673Z,31.37
2018-12-16T11:33:00.628Z,32.37
2018-12-16T11:35:28.685Z,30.20
2018-12-16T11:37:56.690Z,30.73
2018-12-16T11:40:24.730Z,34.40
2018-12-16T11:42:52.695Z,37.13
2018-12-16T11:45:20.860Z,30.13
2018-12-16T11:47:48.976Z,32.83
2018-12-16T11:50:17.011Z,32.97
2018-12-16T11:52:45.077Z,36.00
2018-12-16T11:55:13.194Z,34.63
2018-12-16T11:57:41.320Z,34.30
2018-12-16T12:00:09.345Z,35.23
2018-12-16T12:02:37.297Z,30.73
2018-12-16T12:05:05.630Z,32.37
2018-12-16T12:07:33.776Z,32.63
2018-12-16T12:10:01.731Z,36.10
2018-12-16T12:12:29.752Z,35.10
2018-12-16T12:14:57.883Z,35.63
2018-12-16T12:17:25.849Z,34.67
2018-12-16T12:19:53.996Z,30.43
2018-12-16T12:22:22.137Z,37.53
2018-12-16T12:24:50.314Z,30.93
2018-12-16T12:27:18.498Z,34.73
2018-12-16T12:29:46.512Z,34.97
2018-12-16T12:32:14.585Z,30.13
2018-12-16T12:34:42.620Z,40.67
2018-12-16T12:37:10.700Z,32.40
2018-12-16T12:39:38.660Z,37.10
2018-12-16T12:42:06.825Z,39.90
2018-12-16T12:44:34.816Z,34.20
2018-12-16T12:47:02.873Z,33.10
2018-12-16T12:49:30.935Z,41.90
2018-12-16T12:51:58.924Z,34.53
2018-12-16T12:54:26.889Z,32.27
2018-12-16T12:56:54.947Z,37.20
2018-12-16T12:59:23.097Z,39.57
2018-12-16T13:01:51.007Z,32.67
2018-12-16T13:04:19.073Z,38.93
2018-12-16T13:06:47.148Z,32.90
2018-12-16T13:09:15.104Z,37.13
2018-12-16T13:11:43.175Z,33.87
2018-12-16T13:14:11.182Z,38.03
2018-12-16T13:16:39.244Z,42.80
2018-12-16T13:19:07.291Z,35.70
2018-12-16T13:21:35.458Z,37.57
2018-12-16T13:24:03.518Z,34.03
2018-12-16T13:26:31.816Z,36.87
2018-12-16T13:28:59.992Z,31.17
2018-12-16T13:31:28.062Z,37.50
2018-12-16T13:33:56.108Z,32.00
2018-12-16T13:36:24.201Z,34.03
2018-12-16T13:38:52.355Z,32.13
2018-12-16T13:41:20.361Z,34.50
2018-12-16T13:43:48.636Z,38.70
2018-12-16T13:46:16.594Z,35.53
2018-12-16T13:48:44.565Z,33.63
2018-12-16T13:51:12.744Z,34.27
2018-12-16T13:53:40.705Z,32.83
2018-12-16T13:56:08.680Z,34.83
2018-12-16T13:58:36.756Z,32.73
2018-12-16T14:01:04.827Z,31.27
2018-12-16T14:03:32.793Z,32.47
2018-12-16T14:06:00.969Z,42.40
2018-12-16T14:08:28.924Z,43.13
2018-12-16T14:10:56.893Z,37.47
2018-12-16T14:13:24.897Z,32.30
2018-12-16T14:15:52.876Z,34.00
2018-12-16T14:18:20.885Z,37.63
2018-12-16T14:20:49.000Z,37.23
2018-12-16T14:23:16.967Z,35.17
2018-12-16T14:25:47.919Z,35.30
2018-12-16T14:28:14.953Z,36.30
2018-12-16T14:30:42.927Z,32.43
2018-12-16T14:33:10.883Z,34.23
2018-12-16T14:35:38.925Z,32.93
2018-12-16T14:38:07.237Z,37.67
2018-12-16T14:40:35.208Z,40.60
2018-12-16T14:43:03.200Z,36.97
2018-12-16T14:45:31.248Z,39.67
2018-12-16T14:47:59.325Z,42.17
2018-12-16T14:50:27.405Z,36.40
2018-12-16T14:52:55.463Z,40.37
2018-12-16T14:55:23.472Z,35.93
2018-12-16T14:57:51.468Z,42.93
2018-12-16T15:00:19.568Z,39.20
2018-12-16T15:02:47.621Z,37.87
2018-12-16T15:05:15.948Z,38.60
2018-12-16T15:07:43.920Z,37.70
2018-12-16T15:10:12.067Z,38.33
2018-12-16T15:12:40.223Z,37.33
2018-12-16T15:15:08.360Z,37.73
2018-12-16T15:17:42.554Z,34.57
2018-12-16T15:20:06.614Z,42.80
2018-12-16T15:22:36.937Z,37.33
2018-12-16T15:25:05.447Z,37.93
2018-12-16T15:27:33.583Z,36.70
2018-12-16T15:30:01.768Z,34.77
2018-12-16T15:32:29.734Z,40.77
2018-12-16T15:34:57.820Z,37.97
2018-12-16T15:37:25.780Z,39.63
2018-12-16T15:39:53.829Z,41.83
2018-12-16T15:42:31.875Z,37.07
2018-12-16T15:44:59.953Z,36.17
2018-12-16T15:47:27.924Z,36.13
2018-12-16T15:49:56.093Z,38.43
2018-12-16T15:52:24.095Z,35.90
2018-12-16T15:54:52.037Z,38.97
2018-12-16T15:57:20.150Z,35.87
2018-12-16T15:59:48.215Z,34.23
2018-12-16T16:02:16.314Z,36.40
2018-12-16T16:04:44.384Z,32.37
2018-12-16T16:07:12.424Z,38.50
2018-12-16T16:09:40.484Z,35.47
2018-12-16T16:12:08.552Z,41.00
2018-12-16T16:14:36.527Z,34.57
2018-12-16T16:17:04.482Z,33.03
2018-12-16T16:19:32.568Z,31.77
2018-12-16T16:22:00.528Z,33.47
2018-12-16T16:24:28.490Z,37.27
2018-12-16T16:26:56.653Z,36.37
2018-12-16T16:29:24.711Z,35.10
2018-12-16T16:31:52.676Z,40.37
2018-12-16T16:34:20.670Z,32.60
2018-12-16T16:36:48.732Z,37.07
2018-12-16T16:39:16.679Z,41.47
2018-12-16T16:41:44.801Z,44.33
2018-12-16T16:44:14.364Z,40.83
2018-12-16T16:46:42.485Z,39.90
2018-12-16T16:49:10.585Z,44.90
2018-12-16T16:51:38.540Z,40.23
2018-12-16T16:54:06.594Z,39.97
2018-12-16T16:56:34.685Z,41.77
2018-12-16T16:59:02.656Z,40.37
2018-12-16T17:01:30.633Z,44.77
2018-12-16T17:03:58.761Z,42.43
2018-12-16T17:06:26.724Z,40.60
2018-12-16T17:08:54.686Z,38.50
2018-12-16T17:11:22.973Z,38.50
2018-12-16T17:13:51.151Z,39.00
2018-12-16T17:16:19.242Z,43.67
2018-12-16T17:18:47.358Z,43.47
2018-12-16T17:21:15.320Z,45.30
2018-12-16T17:23:43.393Z,40.07
2018-12-16T17:26:11.386Z,41.00
2018-12-16T17:28:39.332Z,41.27
2018-12-16T17:31:07.392Z,42.17
2018-12-16T17:33:35.392Z,41.50
2018-12-16T17:36:03.349Z,35.40
2018-12-16T17:38:31.316Z,41.67
2018-12-16T17:40:59.310Z,38.60
2018-12-16T17:43:27.268Z,38.00
2018-12-16T17:45:55.238Z,37.17
2018-12-16T17:48:23.231Z,41.40
2018-12-16T17:50:51.244Z,37.33
2018-12-16T17:53:19.205Z,38.00
2018-12-16T17:55:47.283Z,40.37
2018-12-16T17:58:15.231Z,39.93
2018-12-16T18:00:43.211Z,41.27
2018-12-16T18:03:11.200Z,36.37
2018-12-16T18:05:39.165Z,43.47
2018-12-16T18:08:07.120Z,37.33
2018-12-16T18:10:35.128Z,43.50
2018-12-16T18:13:03.116Z,35.67
2018-12-16T18:15:31.090Z,41.17
2018-12-16T18:17:59.088Z,37.13
2018-12-16T18:20:27.048Z,39.97
2018-12-16T18:22:55.027Z,39.70
2018-12-16T18:25:23.021Z,39.53
2018-12-16T18:27:50.993Z,42.90
2018-12-16T18:30:18.956Z,46.47
2018-12-16T18:32:47.017Z,40.83
2018-12-16T18:35:15.067Z,43.00
2018-12-16T18:37:43.160Z,42.40
2018-12-16T18:40:11.265Z,46.73
2018-12-16T18:42:39.237Z,46.17
2018-12-16T18:45:07.244Z,42.00
2018-12-16T18:47:35.247Z,46.17
2018-12-16T18:50:04.560Z,46.47
2018-12-16T18:52:32.554Z,44.30
2018-12-16T18:55:00.557Z,40.27
2018-12-16T18:57:28.523Z,44.80
2018-12-16T18:59:56.477Z,43.77
2018-12-16T19:02:24.693Z,45.27
2018-12-16T19:04:52.793Z,43.23
2018-12-16T19:07:20.753Z,47.40
2018-12-16T19:09:48.732Z,44.93
2018-12-16T19:12:16.784Z,45.97
2018-12-16T19:14:45.280Z,46.93
2018-12-16T19:17:13.368Z,49.93
2018-12-16T19:19:41.347Z,50.07
2018-12-16T19:22:09.360Z,48.93
2018-12-16T19:24:37.485Z,50.40
2018-12-16T19:27:05.495Z,46.70
2018-12-16T19:29:33.508Z,46.00
2018-12-16T19:32:01.576Z,50.00
2018-12-16T19:34:29.575Z,42.00
2018-12-16T19:36:57.568Z,40.93
2018-12-16T19:39:25.620Z,40.37
2018-12-16T19:41:53.633Z,45.47
2018-12-16T19:44:21.656Z,46.67
2018-12-16T19:46:49.677Z,43.97
2018-12-16T19:49:17.644Z,50.40
2018-12-16T19:51:45.624Z,47.40
2018-12-16T19:54:13.860Z,50.80
2018-12-16T19:56:41.927Z,47.50
2018-12-16T19:59:09.893Z,50.57
2018-12-16T20:01:38.120Z,47.70
2018-12-16T20:04:11.858Z,48.27
2018-12-16T20:06:43.700Z,49.70
2018-12-16T20:09:11.663Z,46.20
2018-12-16T20:11:39.714Z,50.47
2018-12-16T20:14:07.869Z,48.00
2018-12-16T20:16:35.845Z,49.20
2018-12-16T20:19:03.838Z,43.00
2018-12-16T20:21:31.854Z,48.63
2018-12-16T20:23:59.912Z,49.30
2018-12-16T20:26:27.873Z,49.33
2018-12-16T20:28:55.953Z,50.67
2018-12-16T20:31:24.000Z,44.63
2018-12-16T20:33:52.048Z,43.33
2018-12-16T20:36:20.116Z,47.30
2018-12-16T20:38:48.080Z,48.40
2018-12-16T20:41:16.042Z,44.20
2018-12-16T20:43:44.126Z,45.20
2018-12-16T20:46:12.224Z,40.17
2018-12-16T20:48:40.201Z,40.13
2018-12-16T20:51:08.272Z,46.07
2018-12-16T20:53:36.233Z,42.07
2018-12-16T20:56:04.301Z,46.27
2018-12-16T20:58:32.342Z,45.93
2018-12-16T21:01:00.301Z,43.43
2018-12-16T21:03:28.257Z,44.03
2018-12-16T21:05:56.364Z,46.73
2018-12-16T21:08:24.327Z,46.40
2018-12-16T21:10:52.335Z,41.77
2018-12-16T21:16:29.062Z,47.13
2018-12-16T21:18:57.148Z,45.87
2018-12-16T21:21:25.134Z,47.87
2018-12-16T21:23:53.214Z,53.60
2018-12-16T21:26:21.279Z,50.73
2018-12-16T21:28:49.264Z,45.97
2018-12-16T21:31:17.272Z,45.20
2018-12-16T21:33:45.279Z,50.90
2018-12-16T21:36:13.253Z,46.80
2018-12-16T21:38:41.210Z,46.80
2018-12-16T21:41:09.211Z,46.57
2018-12-16T21:43:37.171Z,49.10
2018-12-16T21:46:05.151Z,52.10
2018-12-16T21:48:33.196Z,46.73
2018-12-16T21:51:01.160Z,46.73
2018-12-16T21:53:29.128Z,44.20
2018-12-16T21:55:57.152Z,41.83
2018-12-16T21:58:25.108Z,46.43
2018-12-16T22:00:53.064Z,45.97
2018-12-16T22:03:21.043Z,44.50
2018-12-16T22:05:49.058Z,45.57
2018-12-16T22:08:17.018Z,44.97
2018-12-16T22:10:45.019Z,45.40
2018-12-16T22:13:12.976Z,48.87
2018-12-16T22:15:40.949Z,45.03
2018-12-16T22:18:09.017Z,46.23
2018-12-16T22:20:36.997Z,39.60
2018-12-16T22:23:04.965Z,45.97
2018-12-16T22:25:33.044Z,44.20
2018-12-16T22:28:01.001Z,42.60
2018-12-16T22:30:28.958Z,42.70
2018-12-16T22:32:56.960Z,42.30
2018-12-16T22:35:24.918Z,41.33
2018-12-16T22:37:52.875Z,41.07
2018-12-16T22:40:21.018Z,43.63
2018-12-16T22:42:49.044Z,40.50
2018-12-16T22:45:17.013Z,42.87
2018-12-16T22:47:45.005Z,44.50
2018-12-16T22:50:13.000Z,45.70
2018-12-16T22:52:41.012Z,44.63
2018-12-16T22:55:09.135Z,43.73
2018-12-16T22:57:37.107Z,43.73
2018-12-16T23:00:05.548Z,43.28
2018-12-16T23:02:33.526Z,43.50
2018-12-16T23:05:01.497Z,43.20
2018-12-16T23:07:29.446Z,45.70
2018-12-16T23:09:57.440Z,43.33
2018-12-16T23:12:25.404Z,46.33
2018-12-16T23:14:53.374Z,44.47
2018-12-16T23:17:21.372Z,42.70
2018-12-16T23:19:51.260Z,43.53
2018-12-16T23:22:19.209Z,43.20
2018-12-16T23:24:47.433Z,39.57
2018-12-16T23:27:15.449Z,39.47
2018-12-16T23:29:43.412Z,44.20
2018-12-16T23:32:12.639Z,40.33
2018-12-16T23:34:40.800Z,43.17
2018-12-16T23:37:08.868Z,42.77
2018-12-16T23:39:36.852Z,40.67
2018-12-16T23:42:04.800Z,40.73
2018-12-16T23:44:32.756Z,40.67
2018-12-16T23:47:00.828Z,41.90
2018-12-16T23:49:28.786Z,44.30
2018-12-16T23:51:56.853Z,40.43
2018-12-16T23:54:24.842Z,42.77
2018-12-16T23:56:52.810Z,44.37
2018-12-16T23:59:20.764Z,42.23
